createdAt,value
2019-02-21T00:01:25.612Z,7.60
2019-02-21T00:03:55.065Z,7.50
2019-02-21T00:06:24.745Z,7.50
2019-02-21T00:08:54.488Z,7.50
2019-02-21T00:11:23.976Z,7.40
2019-02-21T00:13:54.227Z,7.30
2019-02-21T00:16:23.814Z,7.30
2019-02-21T00:18:53.653Z,7.30
2019-02-21T00:21:23.108Z,7.30
2019-02-21T00:23:52.991Z,7.30
2019-02-21T00:26:23.276Z,7.30
2019-02-21T00:28:53.063Z,7.20
2019-02-21T00:31:22.817Z,7.20
2019-02-21T00:33:52.266Z,7.20
2019-02-21T00:36:22.066Z,7.20
2019-02-21T00:38:51.518Z,7.20
2019-02-21T00:41:20.912Z,7.20
2019-02-21T00:43:50.823Z,7.10
2019-02-21T00:46:20.857Z,7.00
2019-02-21T00:48:50.483Z,7.00
2019-02-21T00:51:19.834Z,7.00
2019-02-21T00:53:49.646Z,6.90
2019-02-21T00:56:19.203Z,6.90
2019-02-21T00:58:48.792Z,6.90
2019-02-21T01:01:20.740Z,6.90
2019-02-21T01:03:49.485Z,6.80
2019-02-21T01:06:19.006Z,6.80
2019-02-21T01:08:48.701Z,6.80
2019-02-21T01:11:18.130Z,6.70
2019-02-21T01:13:47.538Z,6.60
2019-02-21T01:16:17.210Z,6.60
2019-02-21T01:18:46.676Z,6.50
2019-02-21T01:21:16.187Z,6.50
2019-02-21T01:23:45.810Z,6.40
2019-02-21T01:26:16.894Z,6.40
2019-02-21T01:28:46.377Z,6.30
2019-02-21T01:31:16.192Z,6.30
2019-02-21T01:33:45.680Z,6.20
2019-02-21T01:36:15.265Z,6.10
2019-02-21T01:38:44.833Z,6.10
2019-02-21T01:41:14.679Z,6.00
2019-02-21T01:43:44.292Z,5.90
2019-02-21T01:46:13.761Z,5.80
2019-02-21T01:48:43.564Z,5.70
2019-02-21T01:51:13.258Z,5.70
2019-02-21T01:53:42.843Z,5.60
2019-02-21T01:56:12.587Z,5.50
2019-02-21T01:58:43.152Z,5.30
2019-02-21T02:01:12.760Z,5.30
2019-02-21T02:03:42.318Z,5.30
2019-02-21T02:06:11.794Z,5.20
2019-02-21T02:08:41.509Z,5.10
2019-02-21T02:11:10.953Z,5.00
2019-02-21T02:13:40.683Z,5.00
2019-02-21T02:16:11.006Z,4.80
2019-02-21T02:18:40.545Z,4.80
2019-02-21T02:21:11.220Z,4.60
2019-02-21T02:23:41.034Z,4.60
2019-02-21T02:26:10.536Z,4.50
2019-02-21T02:28:40.469Z,4.50
2019-02-21T02:31:22.181Z,4.40
2019-02-21T02:33:40.035Z,4.40
2019-02-21T02:36:09.566Z,4.30
2019-02-21T02:38:39.412Z,4.20
2019-02-21T02:41:08.862Z,4.20
2019-02-21T02:43:38.397Z,4.10
2019-02-21T02:46:08.466Z,4.10
2019-02-21T02:48:38.285Z,4.00
2019-02-21T02:51:07.801Z,4.00
2019-02-21T02:53:37.576Z,3.90
2019-02-21T02:56:07.287Z,3.90
2019-02-21T02:58:37.196Z,3.90
2019-02-21T03:01:07.119Z,3.90
2019-02-21T03:03:36.767Z,3.90
2019-02-21T03:06:06.393Z,3.90
2019-02-21T03:08:35.996Z,3.80
2019-02-21T03:11:05.639Z,3.80
2019-02-21T03:13:35.219Z,3.70
2019-02-21T03:16:04.846Z,3.70
2019-02-21T03:18:34.448Z,3.70
2019-02-21T03:21:03.944Z,3.60
2019-02-21T03:23:33.805Z,3.60
2019-02-21T03:26:03.565Z,3.60
2019-02-21T03:28:33.984Z,3.50
2019-02-21T03:31:04.353Z,3.50
2019-02-21T03:33:33.901Z,3.50
2019-02-21T03:36:03.546Z,3.40
2019-02-21T03:38:35.069Z,3.40
2019-02-21T03:41:03.073Z,3.40
2019-02-21T03:43:32.546Z,3.30
2019-02-21T03:46:02.279Z,3.30
2019-02-21T03:48:31.847Z,3.30
2019-02-21T03:51:02.073Z,3.30
2019-02-21T03:53:31.795Z,3.20
2019-02-21T03:56:01.470Z,3.20
2019-02-21T03:58:31.737Z,3.20
2019-02-21T04:01:01.219Z,3.10
2019-02-21T04:03:31.650Z,3.20
2019-02-21T04:06:01.314Z,3.10
2019-02-21T04:08:30.859Z,3.10
2019-02-21T04:11:00.503Z,3.10
2019-02-21T04:13:30.203Z,3.10
2019-02-21T04:15:59.714Z,3.10
2019-02-21T04:18:29.601Z,3.00
2019-02-21T04:20:59.270Z,3.00
2019-02-21T04:23:28.840Z,2.90
2019-02-21T04:25:58.702Z,2.90
2019-02-21T04:28:28.405Z,2.90
2019-02-21T04:30:58.193Z,2.90
2019-02-21T04:33:28.480Z,2.90
2019-02-21T04:35:58.022Z,2.90
2019-02-21T04:38:27.434Z,2.90
2019-02-21T04:40:57.128Z,2.80
2019-02-21T04:43:26.519Z,2.80
2019-02-21T04:45:56.138Z,2.80
2019-02-21T04:48:25.591Z,2.80
2019-02-21T04:50:55.337Z,2.80
2019-02-21T04:53:25.240Z,2.80
2019-02-21T04:55:54.826Z,2.80
2019-02-21T04:58:24.141Z,2.70
2019-02-21T05:00:54.227Z,2.70
2019-02-21T05:03:23.785Z,2.70
2019-02-21T05:05:53.219Z,2.60
2019-02-21T05:08:22.896Z,2.60
2019-02-21T05:10:52.675Z,2.60
2019-02-21T05:13:22.321Z,2.60
2019-02-21T05:15:51.869Z,2.60
2019-02-21T05:18:21.334Z,2.50
2019-02-21T05:20:51.301Z,2.50
2019-02-21T05:23:20.603Z,2.50
2019-02-21T05:25:54.409Z,2.40
2019-02-21T05:28:30.051Z,2.50
2019-02-21T05:31:01.464Z,2.40
2019-02-21T05:33:36.885Z,2.40
2019-02-21T05:36:07.464Z,2.40
2019-02-21T05:38:42.434Z,2.40
2019-02-21T05:41:14.204Z,2.30
2019-02-21T05:46:52.076Z,2.20
2019-02-21T05:49:36.239Z,2.20
2019-02-21T05:52:16.992Z,2.10
2019-02-21T05:54:50.277Z,2.20
2019-02-21T05:57:25.918Z,2.10
2019-02-21T05:59:56.976Z,2.10
2019-02-21T06:02:36.891Z,2.10
2019-02-21T06:05:08.715Z,2.10
2019-02-21T06:07:44.737Z,2.10
2019-02-21T06:10:20.073Z,2.00
2019-02-21T06:13:00.618Z,2.00
2019-02-21T06:18:34.395Z,1.90
2019-02-21T06:21:07.027Z,1.80
2019-02-21T06:23:41.755Z,1.80
2019-02-21T06:26:22.930Z,1.80
2019-02-21T06:28:57.508Z,1.80
2019-02-21T06:31:27.047Z,1.80
2019-02-21T06:33:56.889Z,1.70
2019-02-21T06:36:26.390Z,1.70
2019-02-21T06:38:55.879Z,1.80
2019-02-21T06:41:25.886Z,1.80
2019-02-21T06:43:56.864Z,1.80
2019-02-21T06:46:25.794Z,1.70
2019-02-21T06:48:55.275Z,1.70
2019-02-21T06:51:24.832Z,1.70
2019-02-21T06:53:54.467Z,1.70
2019-02-21T06:56:24.002Z,1.70
2019-02-21T06:58:53.635Z,1.60
2019-02-21T07:01:29.164Z,1.60
2019-02-21T07:03:55.001Z,1.50
2019-02-21T07:06:31.848Z,1.50
2019-02-21T07:08:54.940Z,1.50
2019-02-21T07:11:25.504Z,1.50
2019-02-21T07:13:54.872Z,1.50
2019-02-21T07:16:24.293Z,1.50
2019-02-21T07:18:54.203Z,1.40
2019-02-21T07:21:23.914Z,1.40
2019-02-21T07:23:54.338Z,1.40
2019-02-21T07:26:23.734Z,1.40
2019-02-21T07:28:54.416Z,1.30
2019-02-21T07:31:28.860Z,1.30
2019-02-21T07:33:53.573Z,1.30
2019-02-21T07:36:23.807Z,1.30
2019-02-21T07:39:04.910Z,1.30
2019-02-21T07:41:23.513Z,1.30
2019-02-21T07:43:52.820Z,1.20
2019-02-21T07:46:22.439Z,1.20
2019-02-21T07:48:52.077Z,1.20
2019-02-21T07:51:22.372Z,1.10
2019-02-21T07:53:51.608Z,1.10
2019-02-21T07:56:21.395Z,1.00
2019-02-21T07:58:50.936Z,1.00
2019-02-21T08:01:20.232Z,0.90
2019-02-21T08:03:49.426Z,0.90
2019-02-21T08:06:19.906Z,0.90
2019-02-21T08:08:48.872Z,0.80
2019-02-21T08:11:18.553Z,0.80
2019-02-21T08:13:48.099Z,0.80
2019-02-21T08:16:17.517Z,0.80
2019-02-21T08:18:47.148Z,0.80
2019-02-21T08:21:16.817Z,0.80
2019-02-21T08:23:50.461Z,0.80
2019-02-21T08:26:16.091Z,0.90
2019-02-21T08:28:45.768Z,0.90
2019-02-21T08:31:16.028Z,0.90
2019-02-21T08:33:58.278Z,0.90
2019-02-21T08:36:20.946Z,0.90
2019-02-21T08:38:50.679Z,0.90
2019-02-21T08:41:20.046Z,0.80
2019-02-21T08:43:49.725Z,0.80
2019-02-21T08:46:20.826Z,0.70
2019-02-21T08:48:50.415Z,0.70
2019-02-21T08:51:19.910Z,0.80
2019-02-21T08:53:50.195Z,0.80
2019-02-21T08:56:19.704Z,0.80
2019-02-21T08:58:49.195Z,0.80
2019-02-21T09:01:19.084Z,0.90
2019-02-21T09:03:48.724Z,0.90
2019-02-21T09:06:18.030Z,0.80
2019-02-21T09:08:47.862Z,0.80
2019-02-21T09:11:19.654Z,0.70
2019-02-21T09:13:47.182Z,0.70
2019-02-21T09:16:18.402Z,0.70
2019-02-21T09:18:48.012Z,0.70
2019-02-21T09:21:17.495Z,0.70
2019-02-21T09:23:47.038Z,0.70
2019-02-21T09:26:16.506Z,0.70
2019-02-21T09:28:46.081Z,0.70
2019-02-21T09:31:15.629Z,0.70
2019-02-21T09:33:45.097Z,0.60
2019-02-21T09:36:15.365Z,0.70
2019-02-21T09:38:44.916Z,0.70
2019-02-21T09:41:14.676Z,0.70
2019-02-21T09:43:44.149Z,0.70
2019-02-21T09:46:13.720Z,0.60
2019-02-21T09:48:44.059Z,0.60
2019-02-21T09:51:13.589Z,0.60
2019-02-21T09:53:43.311Z,0.60
2019-02-21T09:56:12.923Z,0.60
2019-02-21T09:58:42.515Z,0.60
2019-02-21T10:01:11.810Z,0.60
2019-02-21T10:03:43.996Z,0.60
2019-02-21T10:06:11.219Z,0.60
2019-02-21T10:08:41.758Z,0.60
2019-02-21T10:11:11.548Z,0.60
2019-02-21T10:13:40.906Z,0.60
2019-02-21T10:16:10.609Z,0.70
2019-02-21T10:18:40.137Z,0.70
2019-02-21T10:21:09.678Z,0.70
2019-02-21T10:23:42.030Z,0.70
2019-02-21T10:26:09.611Z,0.70
2019-02-21T10:28:40.015Z,0.60
2019-02-21T10:31:11.247Z,0.50
2019-02-21T10:33:46.883Z,0.50
2019-02-21T10:36:10.626Z,0.50
2019-02-21T10:38:40.099Z,0.50
2019-02-21T10:41:09.605Z,0.50
2019-02-21T10:43:40.370Z,0.50
2019-02-21T10:46:09.839Z,0.50
2019-02-21T10:48:39.556Z,0.50
2019-02-21T10:51:09.115Z,0.50
2019-02-21T10:53:38.783Z,0.60
2019-02-21T10:56:08.366Z,0.70
2019-02-21T10:58:37.617Z,0.60
2019-02-21T11:01:06.991Z,0.50
2019-02-21T11:03:36.281Z,0.30
2019-02-21T11:06:05.971Z,0.30
2019-02-21T11:08:35.698Z,0.30
2019-02-21T11:11:05.956Z,0.20
2019-02-21T11:13:35.331Z,0.20
2019-02-21T11:16:05.730Z,0.30
2019-02-21T11:18:35.115Z,0.30
2019-02-21T11:21:04.923Z,0.30
2019-02-21T11:23:34.718Z,0.30
2019-02-21T11:26:04.603Z,0.30
2019-02-21T11:28:34.889Z,0.40
2019-02-21T11:31:04.347Z,0.30
2019-02-21T11:33:33.745Z,0.40
2019-02-21T11:36:03.107Z,0.40
2019-02-21T11:38:34.289Z,0.10
2019-02-21T11:41:04.046Z,0.10
2019-02-21T11:43:33.588Z,0.00
2019-02-21T11:46:03.954Z,0.00
2019-02-21T11:48:33.434Z,0.00
2019-02-21T11:51:03.111Z,0.00
2019-02-21T11:53:32.794Z,0.00
2019-02-21T11:56:02.379Z,0.00
2019-02-21T11:58:31.964Z,0.10
2019-02-21T12:01:01.671Z,0.10
2019-02-21T12:03:31.162Z,0.10
2019-02-21T12:06:01.564Z,0.00
2019-02-21T12:08:31.065Z,0.00
2019-02-21T12:11:00.640Z,0.00
2019-02-21T12:13:30.330Z,0.00
2019-02-21T12:16:00.274Z,0.00
2019-02-21T12:18:29.894Z,0.00
2019-02-21T12:20:59.457Z,0.00
2019-02-21T12:23:29.053Z,0.00
2019-02-21T12:25:58.740Z,0.00
2019-02-21T12:28:28.366Z,0.00
2019-02-21T12:30:58.035Z,0.00
2019-02-21T12:33:27.712Z,0.00
2019-02-21T12:35:59.387Z,-0.10
2019-02-21T12:38:27.003Z,-0.10
2019-02-21T12:40:56.529Z,-0.10
2019-02-21T12:43:26.283Z,0.00
2019-02-21T12:45:56.077Z,0.00
2019-02-21T12:48:25.768Z,0.00
2019-02-21T12:50:55.150Z,0.00
2019-02-21T12:53:24.445Z,0.00
2019-02-21T12:55:54.747Z,0.00
2019-02-21T12:58:24.189Z,0.00
2019-02-21T13:00:53.745Z,0.10
2019-02-21T13:03:23.373Z,0.10
2019-02-21T13:05:53.082Z,0.10
2019-02-21T13:08:22.538Z,0.10
2019-02-21T13:10:51.820Z,0.00
2019-02-21T13:13:21.291Z,-0.10
2019-02-21T13:15:50.821Z,-0.20
2019-02-21T13:18:20.537Z,-0.20
2019-02-21T13:20:50.109Z,-0.20
2019-02-21T13:23:19.739Z,-0.20
2019-02-21T13:25:49.353Z,-0.20
2019-02-21T13:28:19.602Z,-0.10
2019-02-21T13:30:48.944Z,-0.10
2019-02-21T13:33:18.473Z,-0.10
2019-02-21T13:35:52.664Z,-0.10
2019-02-21T13:38:17.590Z,-0.10
2019-02-21T13:40:49.441Z,-0.10
2019-02-21T13:43:16.968Z,0.00
2019-02-21T13:45:46.401Z,0.00
2019-02-21T13:48:16.566Z,0.00
2019-02-21T13:50:46.153Z,0.00
2019-02-21T13:53:15.497Z,0.00
2019-02-21T13:55:45.209Z,0.00
2019-02-21T13:58:14.873Z,0.00
2019-02-21T14:00:44.344Z,0.00
2019-02-21T14:03:15.146Z,-0.10
2019-02-21T14:05:44.508Z,-0.10
2019-02-21T14:08:14.454Z,-0.10
2019-02-21T14:10:43.946Z,-0.10
2019-02-21T14:13:13.758Z,-0.10
2019-02-21T14:15:43.920Z,-0.10
2019-02-21T14:18:13.438Z,-0.10
2019-02-21T14:20:45.668Z,-0.10
2019-02-21T14:23:12.842Z,-0.20
2019-02-21T14:25:42.481Z,-0.30
2019-02-21T14:28:11.885Z,-0.50
2019-02-21T14:30:41.312Z,-0.60
2019-02-21T14:33:10.941Z,-0.60
2019-02-21T14:35:40.058Z,-0.60
2019-02-21T14:38:09.489Z,-0.50
2019-02-21T14:40:38.893Z,-0.60
2019-02-21T14:43:08.419Z,-0.50
2019-02-21T14:45:37.831Z,-0.50
2019-02-21T14:48:08.307Z,-0.50
2019-02-21T14:50:38.028Z,-0.50
2019-02-21T14:53:07.469Z,-0.50
2019-02-21T14:55:37.657Z,-0.40
2019-02-21T14:58:07.327Z,-0.40
2019-02-21T15:00:36.776Z,-0.40
2019-02-21T15:03:06.393Z,-0.40
2019-02-21T15:05:36.133Z,-0.30
2019-02-21T15:08:05.373Z,-0.30
2019-02-21T15:10:36.461Z,-0.40
2019-02-21T15:13:06.082Z,-0.40
2019-02-21T15:15:35.790Z,-0.40
2019-02-21T15:18:08.313Z,-0.40
2019-02-21T15:20:37.047Z,-0.30
2019-02-21T15:23:04.863Z,-0.30
2019-02-21T15:25:34.418Z,-0.20
2019-02-21T15:28:03.889Z,-0.10
2019-02-21T15:30:33.378Z,-0.10
2019-02-21T15:33:03.047Z,0.00
2019-02-21T15:35:32.496Z,0.10
2019-02-21T15:38:02.067Z,0.20
2019-02-21T15:40:31.454Z,0.20
2019-02-21T15:43:01.158Z,0.30
2019-02-21T15:45:31.322Z,0.40
2019-02-21T15:48:01.235Z,0.40
2019-02-21T15:50:30.816Z,0.60
2019-02-21T15:53:00.686Z,1.20
2019-02-21T15:55:32.184Z,2.00
2019-02-21T15:58:03.869Z,3.00
2019-02-21T16:00:30.120Z,3.70
2019-02-21T16:03:00.853Z,4.00
2019-02-21T16:05:30.428Z,3.80
2019-02-21T16:07:59.839Z,3.60
2019-02-21T16:10:29.414Z,3.60
2019-02-21T16:12:59.509Z,3.60
2019-02-21T16:15:29.391Z,3.80
2019-02-21T16:17:59.150Z,3.70
2019-02-21T16:20:28.940Z,3.60
2019-02-21T16:22:59.345Z,4.40
2019-02-21T16:25:34.421Z,4.40
2019-02-21T16:28:04.187Z,5.20
2019-02-21T16:30:33.943Z,6.60
2019-02-21T16:33:03.664Z,8.40
2019-02-21T16:35:33.297Z,8.90
2019-02-21T16:38:02.874Z,8.70
2019-02-21T16:40:32.654Z,8.80
2019-02-21T16:43:02.836Z,9.50
2019-02-21T16:45:43.006Z,10.30
2019-02-21T16:48:02.030Z,10.30
2019-02-21T16:50:32.350Z,9.40
2019-02-21T16:53:02.740Z,9.40
2019-02-21T16:55:32.315Z,9.50
2019-02-21T16:58:01.805Z,9.50
2019-02-21T17:00:47.424Z,9.40
2019-02-21T17:03:01.373Z,9.60
2019-02-21T17:05:30.828Z,10.00
2019-02-21T17:08:00.250Z,10.50
2019-02-21T17:10:29.952Z,11.70
2019-02-21T17:12:59.426Z,13.80
2019-02-21T17:15:29.297Z,16.30
2019-02-21T17:18:03.649Z,19.40
2019-02-21T17:20:28.792Z,22.60
2019-02-21T17:22:58.940Z,24.30
2019-02-21T17:25:28.588Z,26.10
2019-02-21T17:27:58.261Z,27.80
2019-02-21T17:30:27.638Z,29.10
2019-02-21T17:32:57.535Z,29.70
2019-02-21T17:35:27.050Z,30.50
2019-02-21T17:37:56.510Z,30.50
2019-02-21T17:40:26.008Z,31.10
2019-02-21T17:42:55.258Z,31.60
2019-02-21T17:45:25.525Z,32.70
2019-02-21T17:47:56.742Z,32.70
2019-02-21T17:50:26.244Z,32.60
2019-02-21T17:52:55.854Z,33.10
2019-02-21T17:55:25.840Z,33.00
2019-02-21T17:57:55.323Z,34.00
2019-02-21T18:00:42.320Z,33.80
2019-02-21T18:03:11.828Z,33.70
2019-02-21T18:05:41.340Z,33.20
2019-02-21T18:08:11.778Z,31.90
2019-02-21T18:10:41.568Z,31.90
2019-02-21T18:13:11.172Z,30.70
2019-02-21T18:15:40.799Z,28.50
2019-02-21T18:18:10.189Z,27.50
2019-02-21T18:20:40.126Z,25.70
2019-02-21T18:23:12.350Z,24.70
2019-02-21T18:25:47.628Z,23.80
2019-02-21T18:28:17.214Z,23.00
2019-02-21T18:30:46.571Z,22.60
2019-02-21T18:33:16.000Z,22.70
2019-02-21T18:35:46.291Z,24.20
2019-02-21T18:38:15.260Z,24.20
2019-02-21T18:40:44.797Z,23.90
2019-02-21T18:43:14.392Z,23.90
2019-02-21T18:45:43.951Z,23.90
2019-02-21T18:48:13.674Z,21.20
2019-02-21T18:50:43.311Z,21.00
2019-02-21T18:53:14.357Z,22.70
2019-02-21T18:55:45.007Z,26.60
2019-02-21T18:58:14.723Z,26.60
2019-02-21T19:00:45.083Z,27.00
2019-02-21T19:03:14.490Z,28.30
2019-02-21T19:05:43.601Z,26.60
2019-02-21T19:08:13.324Z,23.50
2019-02-21T19:10:43.142Z,23.50
2019-02-21T19:13:14.118Z,21.20
2019-02-21T19:15:43.761Z,21.10
2019-02-21T19:18:13.203Z,19.30
2019-02-21T19:20:42.896Z,18.00
2019-02-21T19:23:12.290Z,19.50
2019-02-21T19:25:42.205Z,20.60
2019-02-21T19:28:11.749Z,19.00
2019-02-21T19:30:42.358Z,18.90
2019-02-21T19:33:12.036Z,18.90
2019-02-21T19:35:41.682Z,19.30
2019-02-21T19:38:11.287Z,19.60
2019-02-21T19:40:41.709Z,21.40
2019-02-21T19:43:11.202Z,21.30
2019-02-21T19:45:41.014Z,22.10
2019-02-21T19:48:10.383Z,22.70
2019-02-21T19:50:39.799Z,21.70
2019-02-21T19:53:09.494Z,21.80
2019-02-21T19:55:39.045Z,23.50
2019-02-21T19:58:09.071Z,25.30
2019-02-21T20:00:38.317Z,27.00
2019-02-21T20:03:07.954Z,28.20
2019-02-21T20:05:37.602Z,29.60
2019-02-21T20:08:09.037Z,27.80
2019-02-21T20:10:38.005Z,27.80
2019-02-21T20:13:07.825Z,28.80
2019-02-21T20:17:57.116Z,27.70
2019-02-21T20:20:26.969Z,26.90
2019-02-21T20:22:56.337Z,26.00
2019-02-21T20:25:26.186Z,25.70
2019-02-21T20:27:55.677Z,24.20
2019-02-21T20:30:25.313Z,21.40
2019-02-21T20:32:54.879Z,20.40
2019-02-21T20:35:24.570Z,19.00
2019-02-21T20:37:54.595Z,17.10
2019-02-21T20:40:24.318Z,17.10
2019-02-21T20:42:54.005Z,17.10
2019-02-21T20:45:24.847Z,18.70
2019-02-21T20:47:54.577Z,19.50
2019-02-21T20:50:24.041Z,19.50
2019-02-21T20:52:53.430Z,19.50
2019-02-21T20:55:22.793Z,17.60
2019-02-21T20:57:52.697Z,17.40
2019-02-21T21:00:22.577Z,17.70
2019-02-21T21:02:52.334Z,17.80
2019-02-21T21:05:22.111Z,17.60
2019-02-21T21:07:51.553Z,16.80
2019-02-21T21:10:21.092Z,16.40
2019-02-21T21:12:50.748Z,16.00
2019-02-21T21:15:20.550Z,15.40
2019-02-21T21:17:50.807Z,14.50
2019-02-21T21:20:20.405Z,14.40
2019-02-21T21:22:50.173Z,14.10
2019-02-21T21:25:19.679Z,13.40
2019-02-21T21:27:49.258Z,13.00
2019-02-21T21:30:19.615Z,12.70
2019-02-21T21:32:50.571Z,12.50
2019-02-21T21:35:20.560Z,12.30
2019-02-21T21:37:50.411Z,12.20
2019-02-21T21:40:20.006Z,12.10
2019-02-21T21:42:49.231Z,11.90
2019-02-21T21:45:19.686Z,11.60
2019-02-21T21:47:49.470Z,11.60
2019-02-21T21:50:19.075Z,11.60
2019-02-21T21:52:48.412Z,11.40
2019-02-21T21:55:18.137Z,11.30
2019-02-21T21:57:47.761Z,11.20
2019-02-21T22:00:20.633Z,11.20
2019-02-21T22:02:50.467Z,11.10
2019-02-21T22:05:19.916Z,10.80
2019-02-21T22:07:49.858Z,10.70
2019-02-21T22:10:19.497Z,10.50
2019-02-21T22:12:49.285Z,10.60
2019-02-21T22:15:22.028Z,10.70
2019-02-21T22:17:51.687Z,10.80
2019-02-21T22:20:21.460Z,10.60
2019-02-21T22:22:51.159Z,10.60
2019-02-21T22:25:20.823Z,10.50
2019-02-21T22:27:50.451Z,10.40
2019-02-21T22:30:20.683Z,10.00
2019-02-21T22:32:50.238Z,9.70
2019-02-21T22:35:19.977Z,9.60
2019-02-21T22:37:49.577Z,9.40
2019-02-21T22:40:19.539Z,9.10
2019-02-21T22:42:50.155Z,9.00
2019-02-21T22:45:19.874Z,8.80
2019-02-21T22:47:49.412Z,8.80
2019-02-21T22:50:19.665Z,8.70
2019-02-21T22:52:49.514Z,8.60
2019-02-21T22:55:19.064Z,8.60
2019-02-21T22:57:48.631Z,8.70
2019-02-21T23:03:19.228Z,8.50
2019-02-21T23:05:54.383Z,8.40
2019-02-21T23:08:47.995Z,8.20
2019-02-21T23:11:17.776Z,8.30
2019-02-21T23:13:47.614Z,8.30
2019-02-21T23:16:17.084Z,8.30
2019-02-21T23:18:47.049Z,8.30
2019-02-21T23:21:17.016Z,8.30
2019-02-21T23:23:46.423Z,8.30
2019-02-21T23:26:15.513Z,8.30
2019-02-21T23:28:44.969Z,8.20
2019-02-21T23:31:15.115Z,8.00
2019-02-21T23:33:44.977Z,8.00
2019-02-21T23:36:14.473Z,7.90
2019-02-21T23:38:43.837Z,7.90
2019-02-21T23:41:13.539Z,7.90
2019-02-21T23:43:43.130Z,8.00
2019-02-21T23:46:12.697Z,8.00
2019-02-21T23:48:42.234Z,8.10
2019-02-21T23:51:11.906Z,8.10
2019-02-21T23:53:41.228Z,8.10
2019-02-21T23:56:10.641Z,8.10
2019-02-21T23:58:40.500Z,8.10
